Time;durP1;ratioP1;P1;durP2;ratioP2;P2;SDS_P1;SDS_P2;PMS_P1;PMS_P2;Temp;Humidity;BMP_temperature;BMP_pressure;BME280_temperature;BME280_humidity;BME280_pressure;Samples;Min_cycle;Max_cycle;Signal;HPM_P1;HPM_P2
2021/03/08 00:01:50;;;;;;;11.23;7.30;;;17.10;52.10;;;;;;4896245;29;20040;-61
2021/03/08 00:04:15;;;;;;;10.63;7.30;;;17.10;52.20;;;;;;4895937;29;20105;-61
2021/03/08 00:06:41;;;;;;;11.13;7.43;;;17.00;52.10;;;;;;4883183;29;20504;-62
2021/03/08 00:09:06;;;;;;;11.20;7.28;;;17.10;52.20;;;;;;4895588;29;20072;-62
2021/03/08 00:11:32;;;;;;;13.80;8.45;;;17.00;52.20;;;;;;4895580;29;20037;-62
2021/03/08 00:13:57;;;;;;;12.18;7.47;;;17.00;52.20;;;;;;4895523;29;20385;-61
2021/03/08 00:16:23;;;;;;;11.15;7.50;;;17.00;52.20;;;;;;4893657;29;20519;-64
2021/03/08 00:18:48;;;;;;;12.50;7.85;;;17.00;52.20;;;;;;4896392;29;20047;-61
2021/03/08 00:21:14;;;;;;;14.35;8.07;;;17.00;52.20;;;;;;4894948;29;20031;-61
2021/03/08 00:23:39;;;;;;;13.38;8.82;;;16.90;52.20;;;;;;4895733;29;20036;-62
2021/03/08 00:26:05;;;;;;;13.65;8.40;;;17.00;52.20;;;;;;4895025;29;20508;-63
2021/03/08 00:28:30;;;;;;;11.95;7.60;;;16.90;52.20;;;;;;4890319;29;20542;-61
2021/03/08 00:30:56;;;;;;;11.93;7.90;;;17.00;52.30;;;;;;4877653;29;20050;-62
2021/03/08 00:33:21;;;;;;;10.80;7.25;;;16.90;52.20;;;;;;4876298;29;20036;-65
2021/03/08 00:35:47;;;;;;;12.15;7.55;;;16.90;52.20;;;;;;4886958;29;20396;-62
2021/03/08 00:38:12;;;;;;;13.32;7.65;;;16.90;52.30;;;;;;4895089;29;20032;-62
2021/03/08 00:40:38;;;;;;;12.13;7.78;;;16.90;52.30;;;;;;4895903;29;20467;-62
2021/03/08 00:43:04;;;;;;;11.85;7.90;;;16.90;52.30;;;;;;4895958;29;20559;-61
2021/03/08 00:45:29;;;;;;;12.73;7.90;;;16.90;52.30;;;;;;4895567;29;20061;-62
2021/03/08 00:47:55;;;;;;;13.25;8.30;;;16.90;52.30;;;;;;4895088;29;20111;-63
2021/03/08 00:50:25;;;;;;;14.82;8.18;;;16.80;52.30;;;;;;4894832;29;20031;-64
2021/03/08 00:52:51;;;;;;;11.30;7.82;;;16.80;52.20;;;;;;4894138;29;20071;-62
2021/03/08 00:55:16;;;;;;;14.93;8.32;;;16.80;52.30;;;;;;4894990;29;20056;-62
2021/03/08 00:57:42;;;;;;;11.52;7.30;;;16.80;52.30;;;;;;4895526;29;20137;-62
2021/03/08 01:00:13;;;;;;;13.77;8.85;;;16.80;52.30;;;;;;4894363;29;20025;-61
2021/03/08 01:02:39;;;;;;;11.48;8.30;;;16.70;52.20;;;;;;4894199;29;20036;-62
2021/03/08 01:05:05;;;;;;;12.52;8.18;;;16.70;52.20;;;;;;4895318;29;20060;-62
2021/03/08 01:07:31;;;;;;;12.65;7.90;;;16.70;52.30;;;;;;4882083;29;20108;-62
2021/03/08 01:09:57;;;;;;;14.15;8.20;;;16.70;52.30;;;;;;4895716;29;20061;-61
2021/03/08 01:12:22;;;;;;;11.82;7.90;;;16.70;52.30;;;;;;4894367;29;20021;-62
2021/03/08 01:14:48;;;;;;;11.68;7.65;;;16.70;52.30;;;;;;4895386;29;20104;-62
2021/03/08 01:17:14;;;;;;;13.48;7.95;;;16.70;52.30;;;;;;4897173;29;20036;-62
2021/03/08 01:19:39;;;;;;;13.00;8.70;;;16.70;52.30;;;;;;4894568;29;20123;-62
2021/03/08 01:22:05;;;;;;;14.00;8.77;;;16.70;52.30;;;;;;4898740;29;20032;-61
2021/03/08 01:24:31;;;;;;;12.68;8.40;;;16.70;52.30;;;;;;4898208;29;20036;-61
2021/03/08 01:26:56;;;;;;;11.60;8.40;;;16.60;52.30;;;;;;4897794;29;20105;-63
2021/03/08 01:29:22;;;;;;;13.38;8.65;;;16.60;52.30;;;;;;4897483;29;20040;-62
2021/03/08 01:31:47;;;;;;;13.07;8.50;;;16.60;52.30;;;;;;4897731;29;20040;-62
2021/03/08 01:34:13;;;;;;;14.50;8.68;;;16.60;52.30;;;;;;4897145;29;20024;-62
2021/03/08 01:36:38;;;;;;;12.05;8.20;;;16.60;52.40;;;;;;4898670;29;20412;-64
2021/03/08 01:39:05;;;;;;;11.93;8.20;;;16.60;52.30;;;;;;4898451;29;20387;-62
2021/03/08 01:41:30;;;;;;;12.95;8.52;;;16.60;52.40;;;;;;4898294;29;21671;-62
2021/03/08 01:43:56;;;;;;;12.60;8.98;;;16.60;52.40;;;;;;4896822;29;20099;-61
2021/03/08 01:46:22;;;;;;;12.10;8.35;;;16.60;52.40;;;;;;4898143;29;20500;-64
2021/03/08 01:48:47;;;;;;;11.18;8.15;;;16.50;52.30;;;;;;4898363;29;20535;-61
2021/03/08 01:51:13;;;;;;;12.15;8.52;;;16.60;52.40;;;;;;4882828;29;20102;-62
2021/03/08 01:53:39;;;;;;;11.52;8.40;;;16.50;52.40;;;;;;4884010;29;20021;-64
2021/03/08 01:56:05;;;;;;;12.18;8.73;;;16.50;52.40;;;;;;4887865;29;20080;-62
2021/03/08 01:58:32;;;;;;;11.05;7.72;;;16.50;52.40;;;;;;4898193;29;20060;-61
2021/03/08 02:00:58;;;;;;;11.63;8.65;;;16.50;52.50;;;;;;4892832;29;20046;-62
2021/03/08 02:03:24;;;;;;;11.73;8.10;;;16.50;52.50;;;;;;4895530;29;20036;-61
2021/03/08 02:05:50;;;;;;;11.80;8.38;;;16.50;52.50;;;;;;4896182;29;20111;-62
2021/03/08 02:08:18;;;;;;;12.65;8.32;;;16.50;52.50;;;;;;4895828;29;20120;-62
2021/03/08 02:10:45;;;;;;;11.45;7.97;;;16.40;52.50;;;;;;4897523;29;20048;-62
2021/03/08 02:13:30;;;;;;;11.55;8.75;;;16.40;52.50;;;;;;4897048;29;20028;-62
2021/03/08 02:16:04;;;;;;;12.63;8.15;;;16.40;52.60;;;;;;4895022;29;20039;-62
2021/03/08 02:18:51;;;;;;;11.75;8.30;;;16.40;52.60;;;;;;4896675;29;20025;-62
2021/03/08 02:21:24;;;;;;;12.80;8.13;;;16.40;52.60;;;;;;4885067;29;20079;-62
2021/03/08 02:24:20;;;;;;;11.55;8.20;;;16.40;52.60;;;;;;4896078;29;20090;-63
2021/03/08 02:27:03;;;;;;;12.23;8.25;;;16.40;52.70;;;;;;4886254;29;20039;-62
2021/03/08 02:29:50;;;;;;;12.07;7.65;;;16.40;52.70;;;;;;4895173;29;20052;-60
2021/03/08 02:32:21;;;;;;;13.00;8.65;;;16.30;52.70;;;;;;4896318;29;20055;-64
2021/03/08 02:35:00;;;;;;;12.07;8.50;;;16.30;52.70;;;;;;4896605;29;20147;-62
2021/03/08 02:37:29;;;;;;;11.23;8.30;;;16.30;52.70;;;;;;4896445;29;20107;-65
2021/03/08 02:40:04;;;;;;;11.70;8.20;;;16.30;52.70;;;;;;4896147;29;20500;-64
2021/03/08 02:42:35;;;;;;;11.38;7.65;;;16.30;52.70;;;;;;4896512;29;20480;-62
2021/03/08 02:45:04;;;;;;;12.82;8.50;;;16.30;52.70;;;;;;4895678;29;20411;-62
2021/03/08 02:47:32;;;;;;;12.43;7.93;;;16.30;52.70;;;;;;4894545;29;20084;-63
2021/03/08 02:50:01;;;;;;;12.60;8.88;;;16.30;52.70;;;;;;4896447;29;20033;-63
2021/03/08 02:52:30;;;;;;;11.77;8.38;;;16.30;52.70;;;;;;4894424;29;20040;-63
2021/03/08 02:54:59;;;;;;;11.45;8.38;;;16.30;52.70;;;;;;4895689;29;20499;-62
2021/03/08 02:57:30;;;;;;;12.60;8.27;;;16.30;52.80;;;;;;4895840;29;20052;-64
2021/03/08 02:59:58;;;;;;;11.73;8.55;;;16.20;52.70;;;;;;4895617;29;20100;-62
2021/03/08 03:02:24;;;;;;;11.75;7.80;;;16.20;52.70;;;;;;4885913;29;20037;-62
2021/03/08 03:04:50;;;;;;;12.02;8.18;;;16.20;52.70;;;;;;4891283;29;20061;-64
2021/03/08 03:07:17;;;;;;;12.25;8.63;;;16.20;52.70;;;;;;4894609;29;20102;-62
2021/03/08 03:09:43;;;;;;;14.70;8.40;;;16.20;52.70;;;;;;4893306;29;20033;-63
2021/03/08 03:12:11;;;;;;;12.07;8.52;;;16.20;52.70;;;;;;4894610;29;20044;-61
2021/03/08 03:14:38;;;;;;;12.20;8.32;;;16.20;52.80;;;;;;4895519;29;20033;-62
2021/03/08 03:17:08;;;;;;;12.43;8.07;;;16.20;52.90;;;;;;4895998;29;20021;-61
2021/03/08 03:19:38;;;;;;;10.57;8.07;;;16.20;52.90;;;;;;4894869;29;20088;-64
2021/03/08 03:22:06;;;;;;;14.43;8.82;;;16.20;52.90;;;;;;4895648;29;20113;-62
2021/03/08 03:24:33;;;;;;;12.82;8.20;;;16.20;52.90;;;;;;4894060;29;20365;-62
2021/03/08 03:27:02;;;;;;;12.38;7.82;;;16.10;53.40;;;;;;4895401;29;20029;-61
2021/03/08 03:29:29;;;;;;;12.32;8.30;;;16.10;52.90;;;;;;4892457;29;20053;-62
2021/03/08 03:31:55;;;;;;;11.40;8.68;;;16.10;52.90;;;;;;4876315;29;20029;-62
2021/03/08 03:34:21;;;;;;;11.57;8.00;;;16.10;52.90;;;;;;4893894;29;20036;-62
2021/03/08 03:36:49;;;;;;;11.93;8.13;;;16.10;53.00;;;;;;4895225;29;20087;-61
2021/03/08 03:39:15;;;;;;;12.77;8.65;;;16.10;52.90;;;;;;4895469;29;20031;-62
2021/03/08 03:41:40;;;;;;;13.15;7.97;;;16.10;52.90;;;;;;4894548;29;20534;-61
2021/03/08 03:44:10;;;;;;;13.07;7.60;;;16.10;53.00;;;;;;4893988;29;20037;-65
2021/03/08 03:46:44;;;;;;;10.90;7.38;;;16.00;52.90;;;;;;4895588;29;20037;-62
2021/03/08 03:49:11;;;;;;;11.25;7.32;;;16.00;52.90;;;;;;4895575;29;20040;-63
2021/03/08 03:51:38;;;;;;;11.77;7.82;;;16.00;52.90;;;;;;4895304;29;20404;-62
2021/03/08 03:54:03;;;;;;;10.98;7.80;;;16.00;52.90;;;;;;4894497;29;20168;-61
2021/03/08 03:56:31;;;;;;;12.75;7.72;;;16.00;52.90;;;;;;4893053;29;20059;-61
2021/03/08 03:59:14;;;;;;;11.15;7.22;;;16.00;52.90;;;;;;4895104;29;20057;-64
2021/03/08 04:01:49;;;;;;;13.25;7.55;;;16.00;52.90;;;;;;4894531;29;20033;-64
2021/03/08 04:04:22;;;;;;;10.63;6.95;;;16.00;52.90;;;;;;4895179;29;20047;-62
2021/03/08 04:06:50;;;;;;;12.48;7.53;;;15.90;52.90;;;;;;4894046;29;20033;-63
2021/03/08 04:09:19;;;;;;;11.60;6.75;;;15.90;52.90;;;;;;4895474;29;20105;-61
2021/03/08 04:11:47;;;;;;;11.30;6.90;;;15.90;53.00;;;;;;4895537;29;20029;-60
2021/03/08 04:14:15;;;;;;;10.43;6.78;;;15.90;52.90;;;;;;4894318;29;20599;-62
2021/03/08 04:16:45;;;;;;;10.70;6.80;;;15.90;53.00;;;;;;4894039;29;20076;-62
2021/03/08 04:19:14;;;;;;;12.40;7.03;;;15.90;52.90;;;;;;4894381;29;20033;-62
2021/03/08 04:21:40;;;;;;;10.88;6.65;;;15.90;52.90;;;;;;4894860;29;20040;-62
2021/03/08 04:24:08;;;;;;;10.75;6.38;;;15.90;53.00;;;;;;4893752;29;20530;-62
2021/03/08 04:26:39;;;;;;;11.35;6.63;;;15.80;52.90;;;;;;4894800;29;20040;-63
2021/03/08 04:29:06;;;;;;;11.30;6.90;;;15.90;53.00;;;;;;4895197;29;20067;-62
2021/03/08 04:31:33;;;;;;;10.52;6.78;;;15.80;53.00;;;;;;4893887;29;20504;-62
2021/03/08 04:34:01;;;;;;;11.25;6.93;;;15.80;53.00;;;;;;4893871;29;20053;-62
2021/03/08 04:36:28;;;;;;;9.73;6.25;;;15.90;53.00;;;;;;4894911;29;20052;-60
2021/03/08 04:38:54;;;;;;;9.57;5.90;;;15.80;53.00;;;;;;4895511;29;20107;-61
2021/03/08 04:41:20;;;;;;;9.02;6.22;;;15.80;53.00;;;;;;4894788;29;20025;-62
2021/03/08 04:43:47;;;;;;;10.65;6.20;;;15.80;53.00;;;;;;4893532;29;20064;-64
2021/03/08 04:46:14;;;;;;;9.88;5.88;;;15.80;53.00;;;;;;4890657;29;20068;-62
2021/03/08 04:48:40;;;;;;;10.18;6.43;;;15.80;53.10;;;;;;4889164;29;20068;-62
2021/03/08 04:51:08;;;;;;;9.95;5.78;;;15.80;53.00;;;;;;4878389;29;20037;-64
2021/03/08 04:53:35;;;;;;;9.45;5.50;;;15.80;53.10;;;;;;4898337;29;20044;-63
2021/03/08 04:56:02;;;;;;;54.72;7.22;;;15.70;53.10;;;;;;4888682;29;20369;-62
2021/03/08 04:58:32;;;;;;;15.02;5.32;;;16.10;55.80;;;;;;4898240;29;20506;-63
2021/03/08 05:00:58;;;;;;;9.38;5.18;;;16.80;56.10;;;;;;4885050;29;20522;-64
2021/03/08 05:03:25;;;;;;;77.93;8.15;;;17.20;55.60;;;;;;4893815;29;20527;-60
2021/03/08 05:05:53;;;;;;;9.13;5.28;;;18.50;52.20;;;;;;4890948;29;20040;-64
2021/03/08 05:08:21;;;;;;;9.32;5.30;;;16.90;52.00;;;;;;4896735;29;20412;-63
2021/03/08 05:10:50;;;;;;;9.63;4.95;;;16.30;53.10;;;;;;4896951;29;20040;-64
2021/03/08 05:13:17;;;;;;;9.60;5.30;;;16.00;53.80;;;;;;4898258;29;20040;-64
2021/03/08 05:15:44;;;;;;;9.82;4.88;;;15.80;54.00;;;;;;4890865;29;20028;-64
2021/03/08 05:18:11;;;;;;;8.07;4.80;;;15.80;54.10;;;;;;4894085;29;20040;-64
2021/03/08 05:20:37;;;;;;;8.20;4.70;;;15.70;54.00;;;;;;4883951;29;20197;-65
2021/03/08 05:23:04;;;;;;;8.73;5.10;;;15.70;53.90;;;;;;4893979;29;20036;-64
2021/03/08 05:25:31;;;;;;;11.32;4.38;;;15.70;54.00;;;;;;4887577;29;20040;-63
2021/03/08 05:27:59;;;;;;;11.23;4.65;;;15.80;54.10;;;;;;4880894;29;20121;-62
2021/03/08 05:30:27;;;;;;;8.20;4.18;;;15.90;53.30;;;;;;4891170;29;20036;-61
2021/03/08 05:32:58;;;;;;;12.45;4.50;;;16.00;53.10;;;;;;4885674;29;20041;-62
2021/03/08 05:35:25;;;;;;;10.33;4.27;;;16.00;52.90;;;;;;4885358;29;20032;-62
2021/03/08 05:37:51;;;;;;;9.52;3.95;;;16.20;53.00;;;;;;4884339;29;20041;-63
2021/03/08 05:40:37;;;;;;;9.00;4.15;;;16.00;52.90;;;;;;4886259;29;20210;-62
2021/03/08 05:43:06;;;;;;;8.48;4.20;;;16.00;52.90;;;;;;4890088;29;20135;-62
2021/03/08 05:45:38;;;;;;;7.80;3.72;;;16.00;52.90;;;;;;4891930;29;20028;-63
2021/03/08 05:48:16;;;;;;;10.40;3.97;;;16.00;52.90;;;;;;4889525;29;20036;-64
2021/03/08 05:51:16;;;;;;;8.00;3.63;;;16.00;52.90;;;;;;4877603;29;20100;-61
2021/03/08 05:54:02;;;;;;;8.13;3.65;;;15.90;52.80;;;;;;4878779;29;20037;-64
2021/03/08 05:56:49;;;;;;;7.57;3.45;;;15.90;52.90;;;;;;4891180;29;20056;-63
2021/03/08 05:59:33;;;;;;;8.43;3.20;;;15.90;52.90;;;;;;4889585;29;20198;-62
2021/03/08 06:02:29;;;;;;;8.98;3.50;;;15.90;53.00;;;;;;4880231;29;20084;-62
2021/03/08 06:05:07;;;;;;;8.32;3.83;;;15.90;53.00;;;;;;4894787;29;20515;-62
2021/03/08 06:07:55;;;;;;;9.55;3.40;;;15.90;53.10;;;;;;4882396;29;20036;-60
2021/03/08 06:10:24;;;;;;;18.98;15.23;;;15.90;53.20;;;;;;4888714;29;20052;-63
2021/03/08 06:12:54;;;;;;;22.55;16.90;;;16.40;58.80;;;;;;4891246;29;20070;-62
2021/03/08 06:15:21;;;;;;;64.00;10.18;;;16.20;57.70;;;;;;4890363;29;20388;-64
2021/03/08 06:17:50;;;;;;;439.83;394.45;;;16.20;59.70;;;;;;4889547;29;20024;-67
2021/03/08 06:20:18;;;;;;;700.08;629.35;;;16.30;58.30;;;;;;4887484;29;20500;-64
2021/03/08 06:22:44;;;;;;;288.98;258.90;;;16.20;58.30;;;;;;4895694;29;20099;-64
2021/03/08 06:25:11;;;;;;;108.78;97.13;;;16.20;58.30;;;;;;4895394;29;20032;-64
2021/03/08 06:27:37;;;;;;;71.68;63.90;;;16.20;58.10;;;;;;4899499;29;20096;-63
2021/03/08 06:30:04;;;;;;;70.22;62.80;;;16.20;57.90;;;;;;4887179;29;20029;-64
2021/03/08 06:32:30;;;;;;;64.95;57.10;;;16.30;57.60;;;;;;4891165;29;20037;-66
2021/03/08 06:34:56;;;;;;;57.72;51.28;;;16.30;57.20;;;;;;4890228;29;20024;-62
2021/03/08 06:37:25;;;;;;;51.28;44.92;;;16.40;56.90;;;;;;4891426;29;20032;-63
2021/03/08 06:39:51;;;;;;;64.47;45.78;;;16.40;56.60;;;;;;4892099;29;20404;-63
2021/03/08 06:42:17;;;;;;;46.47;41.40;;;16.60;57.50;;;;;;4891438;29;20041;-65
2021/03/08 06:44:47;;;;;;;48.35;41.35;;;16.60;56.60;;;;;;4891914;29;20028;-62
2021/03/08 06:47:14;;;;;;;49.20;39.75;;;16.60;56.80;;;;;;4890014;29;20079;-64
2021/03/08 06:49:40;;;;;;;258.88;233.75;;;16.60;56.10;;;;;;4891904;29;20400;-63
2021/03/08 06:52:10;;;;;;;333.55;300.02;;;16.70;55.80;;;;;;4891445;29;20040;-62
2021/03/08 06:54:37;;;;;;;161.90;144.77;;;16.70;55.50;;;;;;4890828;29;20040;-64
2021/03/08 06:57:21;;;;;;;131.38;117.07;;;16.80;55.20;;;;;;4890476;29;20053;-65
2021/03/08 07:00:01;;;;;;;135.73;121.93;;;16.90;54.90;;;;;;4886315;29;20033;-64
2021/03/08 07:02:47;;;;;;;129.82;117.20;;;16.90;54.70;;;;;;4894547;29;20395;-64
2021/03/08 07:05:13;;;;;;;124.38;112.15;;;17.00;54.50;;;;;;4892685;29;20036;-64
2021/03/08 07:07:50;;;;;;;113.40;102.07;;;17.10;54.20;;;;;;4893252;29;20037;-65
2021/03/08 07:10:29;;;;;;;109.63;98.95;;;17.10;53.90;;;;;;4890482;29;20248;-65
2021/03/08 07:12:54;;;;;;;109.38;98.57;;;17.20;53.70;;;;;;4890703;29;20033;-64
2021/03/08 07:15:20;;;;;;;106.57;96.07;;;17.30;53.50;;;;;;4891178;29;20083;-67
2021/03/08 07:17:46;;;;;;;98.15;88.13;;;17.30;53.30;;;;;;4891039;29;20046;-63
2021/03/08 07:20:14;;;;;;;96.50;86.60;;;17.40;53.10;;;;;;4890621;29;20190;-64
2021/03/08 07:22:49;;;;;;;85.88;76.97;;;17.40;53.00;;;;;;4879670;29;20040;-64
2021/03/08 07:25:31;;;;;;;83.95;75.80;;;17.40;52.90;;;;;;4882496;29;20033;-63
2021/03/08 07:28:04;;;;;;;85.22;76.68;;;17.40;52.90;;;;;;4890410;29;20605;-67
2021/03/08 07:30:32;;;;;;;74.95;67.55;;;17.40;52.80;;;;;;4890815;29;20515;-64
2021/03/08 07:33:04;;;;;;;79.05;71.28;;;17.40;52.70;;;;;;4891060;29;20043;-62
2021/03/08 07:35:49;;;;;;;;;;;17.50;52.60;;;;;;4891226;29;20453;-62
2021/03/08 07:38:28;;;;;;;69.35;62.28;;;17.50;52.50;;;;;;4879172;29;19915;-65
2021/03/08 07:41:08;;;;;;;68.50;61.17;;;17.50;52.30;;;;;;4881844;29;20025;-63
2021/03/08 07:43:35;;;;;;;65.45;58.35;;;17.50;52.30;;;;;;4889191;29;20150;-64
2021/03/08 07:46:00;;;;;;;58.33;52.47;;;17.40;52.40;;;;;;4890804;29;20032;-63
2021/03/08 07:48:26;;;;;;;58.22;52.22;;;17.40;52.50;;;;;;4890950;29;20404;-63
2021/03/08 07:50:52;;;;;;;58.13;52.35;;;17.40;52.50;;;;;;4890437;29;20411;-66
2021/03/08 07:53:34;;;;;;;55.42;49.53;;;17.40;52.50;;;;;;4889619;29;20036;-66
2021/03/08 07:56:02;;;;;;;49.55;44.55;;;17.40;52.40;;;;;;4889594;29;20084;-64
2021/03/08 07:58:33;;;;;;;51.50;44.92;;;17.50;52.30;;;;;;4890086;29;20099;-64
2021/03/08 08:01:01;;;;;;;47.47;42.60;;;17.70;52.00;;;;;;4889994;29;20029;-65
2021/03/08 08:03:26;;;;;;;49.53;44.67;;;17.80;51.70;;;;;;4902151;29;20067;-68
2021/03/08 08:06:03;;;;;;;52.28;46.75;;;17.90;51.70;;;;;;4904127;29;20064;-66
2021/03/08 08:08:30;;;;;;;54.80;46.28;;;17.90;51.50;;;;;;4892379;29;20046;-66
2021/03/08 08:10:57;;;;;;;47.38;41.40;;;18.00;51.40;;;;;;4886942;29;20043;-65
2021/03/08 08:13:28;;;;;;;45.22;40.47;;;18.10;51.30;;;;;;4889315;29;20142;-66
2021/03/08 08:15:55;;;;;;;44.40;39.45;;;18.00;51.10;;;;;;4875838;29;20037;-63
2021/03/08 08:18:23;;;;;;;46.92;41.90;;;18.00;51.30;;;;;;4889252;29;20068;-68
2021/03/08 08:20:52;;;;;;;43.75;36.53;;;18.70;50.90;;;;;;4890058;29;20029;-65
2021/03/08 08:23:24;;;;;;;46.17;37.22;;;18.30;50.80;;;;;;4889927;29;20082;-65
2021/03/08 08:25:49;;;;;;;;;;;18.20;51.10;;;;;;4893392;29;20047;-64
2021/03/08 08:28:18;;;;;;;35.17;30.95;;;18.20;51.20;;;;;;4896181;29;19919;-63
2021/03/08 08:30:53;;;;;;;37.53;33.08;;;18.20;51.20;;;;;;4900345;29;20103;-63
2021/03/08 08:33:28;;;;;;;34.00;30.40;;;18.10;50.90;;;;;;4887124;29;20036;-64
2021/03/08 08:36:07;;;;;;;39.42;27.80;;;18.20;51.10;;;;;;4882711;29;20060;-66
2021/03/08 08:38:32;;;;;;;37.70;29.25;;;18.20;51.20;;;;;;4875140;29;20028;-65
2021/03/08 08:41:20;;;;;;;34.60;27.58;;;18.20;51.10;;;;;;4886460;29;20020;-62
2021/03/08 08:43:47;;;;;;;32.63;23.65;;;18.20;50.90;;;;;;4910887;29;20463;-63
2021/03/08 08:46:26;;;;;;;33.72;25.63;;;18.10;51.00;;;;;;4912147;29;20065;-62
2021/03/08 08:49:18;;;;;;;30.58;23.95;;;18.00;51.20;;;;;;4912282;29;20051;-61
2021/03/08 08:51:49;;;;;;;29.02;23.05;;;18.00;51.30;;;;;;4912339;29;20032;-62
2021/03/08 08:54:27;;;;;;;26.95;23.17;;;17.80;51.50;;;;;;4911895;29;20028;-61
2021/03/08 08:56:58;;;;;;;26.13;22.50;;;17.80;51.70;;;;;;4909860;29;20028;-63
2021/03/08 08:59:25;;;;;;;30.25;22.45;;;17.70;51.70;;;;;;4890460;29;20067;-66
2021/03/08 09:02:10;;;;;;;30.48;20.60;;;17.80;51.80;;;;;;4891515;29;20473;-66
2021/03/08 09:04:36;;;;;;;26.05;18.48;;;17.90;51.60;;;;;;4892848;29;20040;-65
2021/03/08 09:07:03;;;;;;;28.42;17.80;;;18.00;51.30;;;;;;4891037;29;20240;-69
2021/03/08 09:09:31;;;;;;;27.40;18.25;;;18.40;50.50;;;;;;4891283;29;20021;-67
2021/03/08 09:11:58;;;;;;;21.95;17.40;;;18.80;49.60;;;;;;4892191;29;20036;-65
2021/03/08 09:14:33;;;;;;;23.90;17.73;;;18.70;49.50;;;;;;4892547;29;20025;-70
2021/03/08 09:17:10;;;;;;;22.25;18.17;;;18.50;49.70;;;;;;4892919;29;20032;-66
2021/03/08 09:19:36;;;;;;;21.60;15.18;;;18.40;50.00;;;;;;4892622;29;20037;-65
2021/03/08 09:22:20;;;;;;;19.83;16.52;;;18.30;50.10;;;;;;4891978;29;20115;-67
2021/03/08 09:24:47;;;;;;;19.10;16.83;;;18.30;50.00;;;;;;4891750;29;20040;-67
2021/03/08 09:27:26;;;;;;;19.10;15.23;;;18.40;49.90;;;;;;4884246;29;20044;-65
2021/03/08 09:29:54;;;;;;;21.85;14.90;;;18.60;49.70;;;;;;4891610;29;20044;-65
2021/03/08 09:32:20;;;;;;;18.80;13.82;;;18.80;49.30;;;;;;4891958;29;20029;-66
2021/03/08 09:34:45;;;;;;;20.20;13.50;;;19.00;49.10;;;;;;4890458;29;20033;-67
2021/03/08 09:37:12;;;;;;;24.30;14.52;;;19.70;47.80;;;;;;4890171;29;20047;-67
2021/03/08 09:39:55;;;;;;;21.23;14.20;;;19.50;47.70;;;;;;4891794;29;20040;-66
2021/03/08 09:42:21;;;;;;;19.27;12.00;;;19.10;48.30;;;;;;4884213;29;20508;-68
2021/03/08 09:44:48;;;;;;;23.08;15.65;;;19.40;48.30;;;;;;4885575;29;20037;-65
2021/03/08 09:47:13;;;;;;;23.65;13.20;;;20.20;46.90;;;;;;4889082;29;20412;-68
2021/03/08 09:49:53;;;;;;;29.52;12.02;;;21.00;45.40;;;;;;4887476;29;20044;-66
2021/03/08 09:52:39;;;;;;;29.95;12.65;;;21.30;44.20;;;;;;4891290;29;20040;-70
2021/03/08 09:55:07;;;;;;;32.80;13.20;;;20.20;46.00;;;;;;4883891;29;20052;-63
2021/03/08 09:57:36;;;;;;;25.05;10.77;;;19.80;47.00;;;;;;4887816;29;20535;-66
2021/03/08 10:00:11;;;;;;;24.00;10.60;;;19.80;46.80;;;;;;4890763;29;20044;-67
2021/03/08 10:02:37;;;;;;;19.92;11.40;;;20.10;46.70;;;;;;4890129;29;20033;-65
2021/03/08 10:05:06;;;;;;;20.52;11.38;;;20.40;46.20;;;;;;4891788;29;20055;-66
2021/03/08 10:07:32;;;;;;;20.48;10.75;;;20.90;45.30;;;;;;4891676;29;20115;-65
2021/03/08 10:10:08;;;;;;;21.45;10.43;;;21.30;44.30;;;;;;4891902;29;20115;-67
2021/03/08 10:12:34;;;;;;;19.40;10.50;;;20.40;45.40;;;;;;4890739;29;20119;-65
2021/03/08 10:15:00;;;;;;;20.00;10.32;;;20.70;45.40;;;;;;4890427;29;20129;-67
2021/03/08 10:17:26;;;;;;;18.33;9.60;;;21.60;43.80;;;;;;4891945;29;20032;-65
2021/03/08 10:19:55;;;;;;;19.95;9.63;;;21.90;42.30;;;;;;4891336;29;20033;-67
2021/03/08 10:22:33;;;;;;;12.73;9.05;;;21.20;43.60;;;;;;4891771;29;20036;-66
2021/03/08 10:25:00;;;;;;;17.63;9.35;;;21.50;43.50;;;;;;4891700;29;20032;-66
2021/03/08 10:27:26;;;;;;;13.95;8.55;;;21.10;43.50;;;;;;4891803;29;20037;-67
2021/03/08 10:29:52;;;;;;;15.63;8.95;;;20.50;44.70;;;;;;4891897;29;20028;-67
2021/03/08 10:32:18;;;;;;;14.32;8.20;;;21.20;44.30;;;;;;4890507;29;20408;-69
2021/03/08 10:34:45;;;;;;;16.35;8.15;;;22.10;42.30;;;;;;4891303;29;20028;-66
2021/03/08 10:37:11;;;;;;;15.20;7.85;;;22.60;41.50;;;;;;4891395;29;20029;-66
2021/03/08 10:39:37;;;;;;;13.98;7.15;;;22.60;40.80;;;;;;4891257;29;20069;-66
2021/03/08 10:42:03;;;;;;;12.80;6.90;;;22.80;40.20;;;;;;4890920;29;20036;-67
2021/03/08 10:44:29;;;;;;;10.43;6.75;;;23.00;39.80;;;;;;4890788;29;20052;-67
2021/03/08 10:46:54;;;;;;;14.80;6.65;;;22.40;39.90;;;;;;4891283;29;20036;-66
2021/03/08 10:49:20;;;;;;;12.65;6.82;;;21.60;41.60;;;;;;4891143;29;20100;-67
2021/03/08 10:51:45;;;;;;;12.02;6.65;;;21.80;41.70;;;;;;4890848;29;20032;-68
2021/03/08 10:54:13;;;;;;;10.93;6.38;;;21.90;41.30;;;;;;4890812;29;20055;-66
2021/03/08 10:56:41;;;;;;;12.43;5.85;;;21.70;41.20;;;;;;4890907;29;20537;-69
2021/03/08 10:59:30;;;;;;;10.30;6.15;;;22.10;41.10;;;;;;4890793;29;20048;-68
2021/03/08 11:02:05;;;;;;;10.07;5.30;;;22.00;40.50;;;;;;4889319;29;20032;-66
2021/03/08 11:04:31;;;;;;;14.27;6.60;;;20.90;42.40;;;;;;4889798;29;20123;-65
2021/03/08 11:06:56;;;;;;;15.38;6.65;;;20.90;43.60;;;;;;4888107;29;20123;-66
2021/03/08 11:09:36;;;;;;;23.80;6.50;;;22.00;42.00;;;;;;4891088;29;20119;-65
2021/03/08 11:12:04;;;;;;;69.40;24.88;;;22.00;41.60;;;;;;4889646;29;20051;-63
2021/03/08 11:14:44;;;;;;;50.75;26.90;;;22.50;40.50;;;;;;4890962;29;20067;-63
2021/03/08 11:17:10;;;;;;;97.47;56.23;;;22.90;39.40;;;;;;4890937;29;20123;-63
2021/03/08 11:19:35;;;;;;;137.70;83.40;;;23.00;38.90;;;;;;4891036;29;20124;-64
2021/03/08 11:22:14;;;;;;;108.47;65.85;;;23.10;38.80;;;;;;4891023;29;20065;-63
2021/03/08 11:24:51;;;;;;;77.10;47.45;;;22.20;39.60;;;;;;4890693;29;20033;-64
2021/03/08 11:27:21;;;;;;;64.38;40.50;;;21.10;41.60;;;;;;4889843;29;20040;-64
2021/03/08 11:29:56;;;;;;;56.00;37.58;;;20.50;42.80;;;;;;4889640;29;20400;-64
2021/03/08 11:32:24;;;;;;;52.85;36.08;;;20.20;43.60;;;;;;4890696;29;20029;-63
2021/03/08 11:34:52;;;;;;;55.53;35.17;;;20.40;44.20;;;;;;4888878;29;20033;-64
2021/03/08 11:37:19;;;;;;;50.95;32.60;;;21.40;42.50;;;;;;4890412;29;20045;-64
2021/03/08 11:39:47;;;;;;;51.40;32.85;;;20.90;42.70;;;;;;4889252;29;20080;-64
2021/03/08 11:42:15;;;;;;;46.00;31.38;;;20.50;43.70;;;;;;4890509;29;20091;-65
2021/03/08 11:44:41;;;;;;;43.35;28.92;;;20.20;44.20;;;;;;4890060;29;20242;-63
2021/03/08 11:47:08;;;;;;;42.03;27.83;;;20.00;44.70;;;;;;4890376;29;20103;-63
2021/03/08 11:49:34;;;;;;;44.85;28.50;;;19.90;45.00;;;;;;4890215;29;20420;-64
2021/03/08 11:52:00;;;;;;;43.22;29.05;;;19.90;45.20;;;;;;4890497;29;20032;-63
2021/03/08 11:54:25;;;;;;;37.13;25.52;;;19.80;45.40;;;;;;4890004;29;20547;-64
2021/03/08 11:56:51;;;;;;;37.83;26.20;;;19.90;45.50;;;;;;4890687;29;20028;-64
2021/03/08 11:59:18;;;;;;;36.13;24.55;;;20.10;45.50;;;;;;4888314;29;20079;-63
2021/03/08 12:01:43;;;;;;;35.72;24.50;;;20.30;45.30;;;;;;4890482;29;20029;-62
2021/03/08 12:04:09;;;;;;;33.80;23.48;;;21.30;44.50;;;;;;4890216;29;20028;-63
2021/03/08 12:06:34;;;;;;;32.60;23.08;;;22.00;42.80;;;;;;4889877;29;20082;-65
2021/03/08 12:09:00;;;;;;;33.42;22.15;;;22.60;41.70;;;;;;4890100;29;20037;-63
2021/03/08 12:11:26;;;;;;;32.25;21.80;;;22.80;41.10;;;;;;4890282;29;20037;-63
2021/03/08 12:13:51;;;;;;;30.23;21.15;;;22.90;40.80;;;;;;4890419;29;20048;-63
2021/03/08 12:16:17;;;;;;;27.98;19.33;;;22.90;40.60;;;;;;4890057;29;20029;-63
2021/03/08 12:18:42;;;;;;;28.10;19.55;;;22.90;40.70;;;;;;4890000;29;20062;-63
2021/03/08 12:21:08;;;;;;;26.92;17.75;;;22.70;40.90;;;;;;4888762;29;20036;-63
2021/03/08 12:23:34;;;;;;;28.35;18.35;;;22.60;41.20;;;;;;4890366;29;20036;-63
2021/03/08 12:25:59;;;;;;;25.55;17.60;;;22.30;41.50;;;;;;4889957;29;20025;-64
2021/03/08 12:28:25;;;;;;;27.50;17.90;;;22.00;42.00;;;;;;4890357;29;20415;-64
2021/03/08 12:30:51;;;;;;;27.42;16.92;;;21.80;42.40;;;;;;4890299;29;20037;-62
2021/03/08 12:33:17;;;;;;;25.58;15.90;;;21.70;42.80;;;;;;4889065;29;20037;-62
2021/03/08 12:35:43;;;;;;;23.10;14.80;;;21.50;42.90;;;;;;4889140;29;20375;-62
2021/03/08 12:38:08;;;;;;;22.50;15.00;;;21.40;43.20;;;;;;4888520;29;20500;-62
2021/03/08 12:40:34;;;;;;;25.80;14.98;;;21.30;43.30;;;;;;4889709;29;20555;-63
2021/03/08 12:43:00;;;;;;;25.05;14.55;;;21.20;43.60;;;;;;4889952;29;20097;-62
2021/03/08 12:45:25;;;;;;;21.65;14.02;;;21.10;43.80;;;;;;4889397;29;20206;-61